createdAt,value
2023-03-17T00:01:14.570Z,-4.17
2023-03-17T00:06:24.978Z,-4.19
2023-03-17T00:11:28.302Z,-4.22
2023-03-17T00:16:35.012Z,-4.24
2023-03-17T00:21:37.831Z,-4.24
2023-03-17T00:26:41.252Z,-4.27
2023-03-17T00:31:45.550Z,-4.31
2023-03-17T00:36:51.081Z,-4.32
2023-03-17T00:41:54.161Z,-4.32
2023-03-17T00:46:57.910Z,-4.37
2023-03-17T00:52:01.808Z,-4.42
2023-03-17T00:57:04.679Z,-4.42
2023-03-17T01:02:13.269Z,-4.40
2023-03-17T01:07:16.840Z,-4.35
2023-03-17T01:12:20.455Z,-4.30
2023-03-17T01:17:23.172Z,-4.23
2023-03-17T01:22:25.973Z,-4.06
2023-03-17T01:27:29.188Z,-3.83
2023-03-17T01:32:32.102Z,-3.59
2023-03-17T01:37:34.894Z,-3.45
2023-03-17T01:42:38.304Z,-3.41
2023-03-17T01:47:41.056Z,-3.38
2023-03-17T01:52:43.806Z,-3.27
2023-03-17T01:57:51.531Z,-3.16
2023-03-17T02:02:56.784Z,-3.08
2023-03-17T02:08:00.231Z,-3.02
2023-03-17T02:13:05.941Z,-2.97
2023-03-17T02:18:11.598Z,-2.88
2023-03-17T02:23:24.147Z,-2.82
2023-03-17T02:28:30.985Z,-2.77
2023-03-17T02:33:33.668Z,-2.77
2023-03-17T02:38:37.572Z,-2.76
2023-03-17T02:43:41.567Z,-2.76
2023-03-17T02:48:46.151Z,-2.76
2023-03-17T02:53:48.906Z,-2.76
2023-03-17T02:58:52.069Z,-2.70
2023-03-17T03:03:55.484Z,-2.69
2023-03-17T03:08:58.571Z,-2.67
2023-03-17T03:14:01.241Z,-2.66
2023-03-17T03:19:04.492Z,-2.65
2023-03-17T03:24:07.407Z,-2.62
2023-03-17T03:29:10.092Z,-2.60
2023-03-17T03:34:12.804Z,-2.60
2023-03-17T03:39:15.532Z,-2.59
2023-03-17T03:44:18.303Z,-2.56
2023-03-17T03:49:21.420Z,-2.51
2023-03-17T03:54:24.062Z,-2.46
2023-03-17T03:59:26.822Z,-2.47
2023-03-17T04:04:29.555Z,-2.52
2023-03-17T04:09:32.342Z,-2.52
2023-03-17T04:14:35.088Z,-2.48
2023-03-17T04:19:39.369Z,-2.44
2023-03-17T04:24:42.345Z,-2.45
2023-03-17T04:29:45.389Z,-2.48
2023-03-17T04:34:48.026Z,-2.46
2023-03-17T04:39:51.478Z,-2.41
2023-03-17T04:44:54.141Z,-2.32
2023-03-17T04:49:56.863Z,-2.29
2023-03-17T04:54:59.552Z,-2.29
2023-03-17T05:00:02.286Z,-2.27
2023-03-17T05:05:05.858Z,-2.21
2023-03-17T05:10:09.626Z,-2.14
2023-03-17T05:15:12.702Z,-2.08
2023-03-17T05:20:15.722Z,-2.04
2023-03-17T05:25:18.518Z,-1.93
2023-03-17T05:30:21.223Z,-1.79
2023-03-17T05:35:24.089Z,-1.65
2023-03-17T05:40:26.920Z,-1.58
2023-03-17T05:45:30.234Z,-1.47
2023-03-17T05:50:33.666Z,-1.35
2023-03-17T05:55:36.654Z,-1.23
2023-03-17T06:00:39.360Z,-1.16
2023-03-17T06:05:42.160Z,-1.13
2023-03-17T06:10:44.926Z,-1.02
2023-03-17T06:15:49.135Z,-0.87
2023-03-17T06:20:52.000Z,-0.75
2023-03-17T06:25:55.074Z,-0.66
2023-03-17T06:30:58.261Z,-0.59
2023-03-17T06:36:01.890Z,-0.47
2023-03-17T06:41:04.605Z,-0.32
2023-03-17T06:46:07.487Z,-0.15
2023-03-17T06:51:11.060Z,0.09
2023-03-17T06:56:28.914Z,0.40
2023-03-17T07:01:32.505Z,0.64
2023-03-17T07:06:35.369Z,0.82
2023-03-17T07:11:38.150Z,0.97
2023-03-17T07:16:40.991Z,1.11
2023-03-17T07:21:45.972Z,1.28
2023-03-17T07:26:49.756Z,1.48
2023-03-17T07:31:55.193Z,1.73
2023-03-17T07:36:57.965Z,2.06
2023-03-17T07:42:00.778Z,2.62
2023-03-17T07:47:03.546Z,3.11
2023-03-17T07:52:07.137Z,3.45
2023-03-17T07:57:10.032Z,3.62
2023-03-17T08:02:17.359Z,3.67
2023-03-17T08:07:20.285Z,3.73
2023-03-17T08:12:23.971Z,3.74
2023-03-17T08:17:27.533Z,3.74
2023-03-17T08:22:30.611Z,3.78
2023-03-17T08:27:34.291Z,3.92
2023-03-17T08:32:37.722Z,4.13
2023-03-17T08:37:45.896Z,4.47
2023-03-17T08:42:49.544Z,4.73
2023-03-17T08:47:58.636Z,4.92
2023-03-17T08:53:03.304Z,5.22
2023-03-17T08:58:06.061Z,5.54
2023-03-17T09:03:08.732Z,5.84
2023-03-17T09:08:13.001Z,6.04
2023-03-17T09:13:17.706Z,6.25
2023-03-17T09:18:22.097Z,6.40
2023-03-17T09:23:25.328Z,6.51
2023-03-17T09:28:29.273Z,6.55
2023-03-17T09:33:32.817Z,6.52
2023-03-17T09:38:36.154Z,6.71
2023-03-17T09:43:56.743Z,6.88
2023-03-17T09:49:07.434Z,6.92
2023-03-17T09:54:19.185Z,7.13
2023-03-17T09:59:35.601Z,7.32
2023-03-17T10:04:38.360Z,7.44
2023-03-17T10:09:51.859Z,7.42
2023-03-17T10:15:26.962Z,7.41
2023-03-17T10:20:34.653Z,7.38
2023-03-17T10:25:38.226Z,7.49
2023-03-17T10:30:40.991Z,7.73
2023-03-17T10:35:45.018Z,7.98
2023-03-17T10:40:56.845Z,8.24
2023-03-17T10:46:02.728Z,8.42
2023-03-17T10:51:08.838Z,8.52
2023-03-17T10:56:22.413Z,8.73
2023-03-17T11:01:41.395Z,8.92
2023-03-17T11:06:44.750Z,9.13
2023-03-17T11:11:50.135Z,9.26
2023-03-17T11:17:27.587Z,9.41
2023-03-17T11:22:43.944Z,9.58
2023-03-17T11:27:59.820Z,9.73
2023-03-17T11:33:56.845Z,9.81
2023-03-17T11:39:12.646Z,9.78
2023-03-17T11:44:32.135Z,9.80
2023-03-17T11:49:38.349Z,9.76
2023-03-17T11:54:58.985Z,9.68
2023-03-17T12:00:17.004Z,9.57
2023-03-17T12:05:24.439Z,9.59
2023-03-17T12:10:38.067Z,9.58
2023-03-17T12:15:56.547Z,9.45
2023-03-17T12:21:32.922Z,9.39
2023-03-17T12:26:59.493Z,9.39
2023-03-17T12:32:27.132Z,9.46
2023-03-17T12:37:30.976Z,9.57
2023-03-17T12:42:38.464Z,9.69
2023-03-17T12:47:58.524Z,9.66
2023-03-17T12:53:29.820Z,9.63
2023-03-17T12:58:37.733Z,9.69
2023-03-17T13:04:11.093Z,9.74
2023-03-17T13:09:31.007Z,9.75
2023-03-17T13:14:41.892Z,9.74
2023-03-17T13:20:07.537Z,9.72
2023-03-17T13:25:32.525Z,9.69
2023-03-17T13:30:35.671Z,9.61
2023-03-17T13:35:53.319Z,9.58
2023-03-17T13:41:17.892Z,9.51
2023-03-17T13:46:30.668Z,9.52
2023-03-17T13:51:34.352Z,9.53
2023-03-17T13:56:40.508Z,9.58
2023-03-17T14:01:47.697Z,9.60
2023-03-17T14:06:53.935Z,9.54
2023-03-17T14:12:00.084Z,9.48
2023-03-17T14:17:12.239Z,9.46
2023-03-17T14:22:21.968Z,9.46
2023-03-17T14:27:26.537Z,9.55
2023-03-17T14:32:29.565Z,9.64
2023-03-17T14:37:32.255Z,9.61
2023-03-17T14:42:34.981Z,9.56
2023-03-17T14:47:41.058Z,9.45
2023-03-17T14:52:44.358Z,9.75
2023-03-17T14:57:52.744Z,10.19
2023-03-17T15:02:58.152Z,10.33
2023-03-17T15:08:01.138Z,10.28
2023-03-17T15:13:06.330Z,10.18
2023-03-17T15:18:15.374Z,9.98
2023-03-17T15:23:22.399Z,9.74
2023-03-17T15:28:29.000Z,9.57
2023-03-17T15:33:37.008Z,9.71
2023-03-17T15:38:40.490Z,9.71
2023-03-17T15:43:43.185Z,9.27
2023-03-17T15:48:46.620Z,8.87
2023-03-17T15:53:49.405Z,8.50
2023-03-17T15:58:52.550Z,8.14
2023-03-17T16:03:55.616Z,7.78
2023-03-17T16:08:58.356Z,7.45
2023-03-17T16:14:01.118Z,7.26
2023-03-17T16:19:17.659Z,6.95
2023-03-17T16:24:23.210Z,6.54
2023-03-17T16:29:26.281Z,6.16
2023-03-17T16:34:28.980Z,5.78
2023-03-17T16:39:32.347Z,5.41
2023-03-17T16:44:35.066Z,5.06
2023-03-17T16:49:37.907Z,4.74
2023-03-17T16:54:40.728Z,4.42
2023-03-17T16:59:43.645Z,4.16
2023-03-17T17:04:46.551Z,3.93
2023-03-17T17:09:49.233Z,3.74
2023-03-17T17:14:51.934Z,3.59
2023-03-17T17:19:54.633Z,3.45
2023-03-17T17:24:57.312Z,3.31
2023-03-17T17:30:00.064Z,3.18
2023-03-17T17:35:03.241Z,3.07
2023-03-17T17:40:08.794Z,3.00
2023-03-17T17:45:11.533Z,2.98
2023-03-17T17:50:24.993Z,2.94
2023-03-17T17:55:27.717Z,2.87
2023-03-17T18:00:30.787Z,2.84
2023-03-17T18:05:33.524Z,2.85
2023-03-17T18:10:36.261Z,2.87
2023-03-17T18:15:39.072Z,2.85
2023-03-17T18:20:41.812Z,2.82
2023-03-17T18:25:44.740Z,2.79
2023-03-17T18:30:47.773Z,2.79
2023-03-17T18:35:52.285Z,2.78
2023-03-17T18:40:55.007Z,2.78
2023-03-17T18:45:57.787Z,2.75
2023-03-17T18:51:00.959Z,2.72
2023-03-17T18:56:03.927Z,2.72
2023-03-17T19:01:06.768Z,2.75
2023-03-17T19:06:15.056Z,2.76
2023-03-17T19:11:21.685Z,2.74
2023-03-17T19:16:29.080Z,2.71
2023-03-17T19:21:32.580Z,2.67
2023-03-17T19:26:35.779Z,2.62
2023-03-17T19:31:41.488Z,2.58
2023-03-17T19:36:46.508Z,2.57
2023-03-17T19:41:53.197Z,2.55
2023-03-17T19:46:56.004Z,2.55
2023-03-17T19:51:58.699Z,2.53
2023-03-17T19:57:01.423Z,2.50
2023-03-17T20:02:04.123Z,2.47
2023-03-17T20:07:06.938Z,2.44
2023-03-17T20:12:09.705Z,2.39
2023-03-17T20:17:14.242Z,2.33
2023-03-17T20:22:17.306Z,2.30
2023-03-17T20:27:20.566Z,2.28
2023-03-17T20:32:23.261Z,2.27
2023-03-17T20:37:26.062Z,2.23
2023-03-17T20:42:28.722Z,2.20
2023-03-17T20:47:31.600Z,2.15
2023-03-17T20:52:36.375Z,2.11
2023-03-17T20:57:40.779Z,2.09
2023-03-17T21:02:50.891Z,2.03
2023-03-17T21:07:53.832Z,1.99
2023-03-17T21:12:56.513Z,1.97
2023-03-17T21:17:59.227Z,1.98
2023-03-17T21:23:04.699Z,2.00
2023-03-17T21:28:08.224Z,2.04
2023-03-17T21:33:11.362Z,2.10
2023-03-17T21:38:14.216Z,2.20
2023-03-17T21:43:17.430Z,2.34
2023-03-17T21:48:20.949Z,2.45
2023-03-17T21:53:23.953Z,2.53
2023-03-17T21:58:26.757Z,2.57
2023-03-17T22:03:29.570Z,2.57
2023-03-17T22:08:33.503Z,2.55
2023-03-17T22:13:36.428Z,2.50
2023-03-17T22:18:39.447Z,2.48
2023-03-17T22:23:42.592Z,2.45
2023-03-17T22:28:46.887Z,2.41
2023-03-17T22:33:52.643Z,2.39
2023-03-17T22:38:56.648Z,2.37
2023-03-17T22:43:59.325Z,2.32
2023-03-17T22:49:02.007Z,2.27
2023-03-17T22:54:04.783Z,2.26
2023-03-17T22:59:07.486Z,2.22
2023-03-17T23:04:10.192Z,2.15
2023-03-17T23:09:13.248Z,2.11
2023-03-17T23:14:16.369Z,2.07
2023-03-17T23:19:19.490Z,2.03
2023-03-17T23:24:22.345Z,1.96
2023-03-17T23:29:25.180Z,1.91
2023-03-17T23:34:28.487Z,1.85
2023-03-17T23:39:31.315Z,1.78
2023-03-17T23:44:34.080Z,1.72
2023-03-17T23:49:36.877Z,1.65
2023-03-17T23:54:39.818Z,1.57
2023-03-17T23:59:43.413Z,1.53
